Minnewana, Minnesota
Current Conditions -  °F | °C
As of 1:46 AM on Friday 31 Oct 2014 (Local Time) from KHZX Reporting Station
Broken Clouds Broken Clouds  
Wind Chill: 20°   Ceiling: 3300
Heat Index: 30°   Visibility: 10mi
Dew Point: 19°   Wind: 14mph
Humidity: 64%   Direction: 350°N
Pressure: 30.44"   Gusts: NA
Location:  46.7232°N, 93.3159°W
Report Text: KHZX 310646Z AUTO 35012KT 10SM BKN033 M01/M07 A3044 RMK AO2
Loading
Personal Weather Stations






























Interactive Weather Map
Tropical Storm Tracking
New forecast layout! Learn more

10-Day Weather Forecast

Advertisements
Track Severe Weather on mobile